createdAt,value
2019-06-20T00:00:39.123Z,7.50
2019-06-20T00:03:05.301Z,11.30
2019-06-20T00:05:32.416Z,8.27
2019-06-20T00:07:58.574Z,9.20
2019-06-20T00:10:24.773Z,8.57
2019-06-20T00:13:00.041Z,7.17
2019-06-20T00:15:18.993Z,9.70
2019-06-20T00:17:45.168Z,10.03
2019-06-20T00:20:11.375Z,8.20
2019-06-20T00:22:37.527Z,8.03
2019-06-20T00:25:04.277Z,10.80
2019-06-20T00:27:30.489Z,8.57
2019-06-20T00:29:56.642Z,7.13
2019-06-20T00:32:22.821Z,10.80
2019-06-20T00:34:49.025Z,7.20
2019-06-20T00:37:15.169Z,11.30
2019-06-20T00:39:41.320Z,14.40
2019-06-20T00:42:07.559Z,10.77
2019-06-20T00:44:33.738Z,12.10
2019-06-20T00:46:59.883Z,10.47
2019-06-20T00:49:26.146Z,11.13
2019-06-20T00:51:52.408Z,10.97
2019-06-20T00:54:18.559Z,11.20
2019-06-20T00:56:44.768Z,12.77
2019-06-20T00:59:10.922Z,15.03
2019-06-20T01:01:37.109Z,10.47
2019-06-20T01:04:03.340Z,9.77
2019-06-20T01:06:29.571Z,8.40
2019-06-20T01:08:55.758Z,10.00
2019-06-20T01:11:21.967Z,6.73
2019-06-20T01:13:48.125Z,7.30
2019-06-20T01:16:15.220Z,9.50
2019-06-20T01:18:41.490Z,6.97
2019-06-20T01:21:07.692Z,6.53
2019-06-20T01:23:34.205Z,7.93
2019-06-20T01:26:00.423Z,6.30
2019-06-20T01:28:26.560Z,6.93
2019-06-20T01:30:52.767Z,11.83
2019-06-20T01:33:18.961Z,7.50
2019-06-20T01:35:46.209Z,8.93
2019-06-20T01:38:12.363Z,7.47
2019-06-20T01:40:38.676Z,8.53
2019-06-20T01:43:04.848Z,6.53
2019-06-20T01:45:31.000Z,6.77
2019-06-20T01:47:57.206Z,8.27
2019-06-20T01:50:23.464Z,7.43
2019-06-20T01:52:49.619Z,9.83
2019-06-20T01:55:15.843Z,14.50
2019-06-20T01:57:42.014Z,12.70
2019-06-20T02:00:10.465Z,9.27
2019-06-20T02:02:36.651Z,10.67
2019-06-20T02:05:06.127Z,14.50
2019-06-20T02:07:32.275Z,14.47
2019-06-20T02:09:58.474Z,9.63
2019-06-20T02:12:24.689Z,9.63
2019-06-20T02:14:50.896Z,9.17
2019-06-20T02:17:17.209Z,10.27
2019-06-20T02:19:43.349Z,10.97
2019-06-20T02:22:09.510Z,8.70
2019-06-20T02:24:35.817Z,7.67
2019-06-20T02:27:02.296Z,12.13
2019-06-20T02:29:28.464Z,10.93
2019-06-20T02:31:54.681Z,6.57
2019-06-20T02:34:20.863Z,8.27
2019-06-20T02:36:47.912Z,7.30
2019-06-20T02:39:14.088Z,11.10
2019-06-20T02:41:40.258Z,11.53
2019-06-20T02:44:06.515Z,12.43
2019-06-20T02:46:32.742Z,12.67
2019-06-20T02:48:58.885Z,10.17
2019-06-20T02:51:25.632Z,11.00
2019-06-20T02:53:51.945Z,10.07
2019-06-20T02:56:18.218Z,10.00
2019-06-20T02:58:44.379Z,10.13
2019-06-20T03:01:10.577Z,6.43
2019-06-20T03:03:36.752Z,8.03
2019-06-20T03:06:03.426Z,8.53
2019-06-20T03:08:29.719Z,6.50
2019-06-20T03:10:55.886Z,5.67
2019-06-20T03:13:22.046Z,6.80
2019-06-20T03:15:50.092Z,9.30
2019-06-20T03:18:16.308Z,10.50
2019-06-20T03:20:42.481Z,10.90
2019-06-20T03:23:08.661Z,7.53
2019-06-20T03:25:34.843Z,7.80
2019-06-20T03:28:00.982Z,8.47
2019-06-20T03:30:27.186Z,9.90
2019-06-20T03:32:53.366Z,8.43
2019-06-20T03:35:19.512Z,10.27
2019-06-20T03:37:45.736Z,10.33
2019-06-20T03:40:12.694Z,10.43
2019-06-20T03:42:38.843Z,10.10
2019-06-20T03:45:05.766Z,8.37
2019-06-20T03:47:31.915Z,7.63
2019-06-20T03:49:58.074Z,8.30
2019-06-20T03:52:24.332Z,14.17
2019-06-20T03:54:50.471Z,8.53
2019-06-20T03:57:16.623Z,12.13
2019-06-20T03:59:42.822Z,12.00
2019-06-20T04:02:08.994Z,12.23
2019-06-20T04:04:35.148Z,9.70
2019-06-20T04:07:01.360Z,10.37
2019-06-20T04:09:27.530Z,20.23
2019-06-20T04:11:53.686Z,12.47
2019-06-20T04:14:19.878Z,11.57
2019-06-20T04:16:46.052Z,10.33
2019-06-20T04:19:12.444Z,9.10
2019-06-20T04:21:38.637Z,9.13
2019-06-20T04:24:04.942Z,9.63
2019-06-20T04:26:31.114Z,8.43
2019-06-20T04:28:57.307Z,10.40
2019-06-20T04:31:23.480Z,9.03
2019-06-20T04:33:49.666Z,12.63
2019-06-20T04:36:15.872Z,10.90
2019-06-20T04:38:42.026Z,12.13
2019-06-20T04:41:08.225Z,7.00
2019-06-20T04:43:34.493Z,8.63
2019-06-20T04:48:50.854Z,10.37
2019-06-20T04:51:17.004Z,11.27
2019-06-20T04:53:43.186Z,8.90
2019-06-20T04:56:09.387Z,9.00
2019-06-20T04:58:35.555Z,13.73
2019-06-20T05:01:01.789Z,9.23
2019-06-20T05:03:28.020Z,13.63
2019-06-20T05:05:54.205Z,13.77
2019-06-20T05:08:20.360Z,10.40
2019-06-20T05:10:46.552Z,12.93
2019-06-20T05:13:12.711Z,9.87
2019-06-20T05:15:52.000Z,12.47
2019-06-20T05:18:06.991Z,15.47
2019-06-20T05:20:33.446Z,10.30
2019-06-20T05:22:59.728Z,18.87
2019-06-20T05:25:25.932Z,11.90
2019-06-20T05:27:52.099Z,17.40
2019-06-20T05:30:18.512Z,14.97
2019-06-20T05:32:44.720Z,19.83
2019-06-20T05:35:10.878Z,13.77
2019-06-20T05:37:37.057Z,15.33
2019-06-20T05:40:06.073Z,11.30
2019-06-20T05:42:32.229Z,15.30
2019-06-20T05:44:58.406Z,14.27
2019-06-20T05:47:24.606Z,12.90
2019-06-20T05:49:50.818Z,11.07
2019-06-20T05:52:17.493Z,13.43
2019-06-20T05:54:43.843Z,12.57
2019-06-20T05:57:10.122Z,12.77
2019-06-20T05:59:36.278Z,16.03
2019-06-20T06:02:02.596Z,11.67
2019-06-20T06:04:28.921Z,12.33
2019-06-20T06:06:55.097Z,11.40
2019-06-20T06:09:21.422Z,11.13
2019-06-20T06:11:49.399Z,18.30
2019-06-20T06:14:15.575Z,13.87
2019-06-20T06:16:44.111Z,13.03
2019-06-20T06:19:12.259Z,15.03
2019-06-20T06:21:39.776Z,14.87
2019-06-20T06:24:08.084Z,18.77
2019-06-20T06:26:34.240Z,13.40
2019-06-20T06:29:03.710Z,12.97
2019-06-20T06:31:30.310Z,15.10
2019-06-20T06:33:56.482Z,13.70
2019-06-20T06:36:22.647Z,15.47
2019-06-20T06:38:48.850Z,12.17
2019-06-20T06:41:16.256Z,10.17
2019-06-20T06:43:42.504Z,13.90
2019-06-20T06:46:08.815Z,10.70
2019-06-20T06:48:35.086Z,15.97
2019-06-20T06:51:01.561Z,10.10
2019-06-20T06:53:28.168Z,9.47
2019-06-20T06:55:54.375Z,10.73
2019-06-20T06:58:20.519Z,10.10
2019-06-20T07:00:48.952Z,10.27
2019-06-20T07:03:15.492Z,14.47
2019-06-20T07:05:42.192Z,12.63
2019-06-20T07:08:09.563Z,10.35
2019-06-20T07:10:35.752Z,12.80
2019-06-20T07:13:04.098Z,9.00
2019-06-20T07:15:33.548Z,11.47
2019-06-20T07:17:59.832Z,9.93
2019-06-20T07:20:27.184Z,9.07
2019-06-20T07:22:53.793Z,8.60
2019-06-20T07:25:20.354Z,9.10
2019-06-20T07:27:46.514Z,7.40
2019-06-20T07:30:13.086Z,9.07
2019-06-20T07:32:39.402Z,6.97
2019-06-20T07:35:06.615Z,8.30
2019-06-20T07:37:32.824Z,11.63
2019-06-20T07:39:59.067Z,9.20
2019-06-20T07:42:25.234Z,10.03
2019-06-20T07:44:51.449Z,7.27
2019-06-20T07:47:18.252Z,7.73
2019-06-20T07:49:44.593Z,8.27
2019-06-20T07:52:10.810Z,8.23
2019-06-20T07:54:37.109Z,7.20
2019-06-20T07:57:03.297Z,8.19
2019-06-20T07:59:29.517Z,8.33
2019-06-20T08:01:55.693Z,6.43
2019-06-20T08:04:21.839Z,7.17
2019-06-20T08:06:48.050Z,7.67
2019-06-20T08:09:14.235Z,11.93
2019-06-20T08:11:40.389Z,9.27
2019-06-20T08:14:06.854Z,6.97
2019-06-20T08:16:33.178Z,6.67
2019-06-20T08:18:59.553Z,7.00
2019-06-20T08:21:25.761Z,8.73
2019-06-20T08:23:51.986Z,9.73
2019-06-20T08:26:18.145Z,8.27
2019-06-20T08:28:44.329Z,7.00
2019-06-20T08:31:10.607Z,10.17
2019-06-20T08:33:40.408Z,6.10
2019-06-20T08:36:06.801Z,10.27
2019-06-20T08:38:33.026Z,7.37
2019-06-20T08:41:00.209Z,7.83
2019-06-20T08:43:27.859Z,10.20
2019-06-20T08:45:56.123Z,10.67
2019-06-20T08:48:22.092Z,11.67
2019-06-20T08:50:48.311Z,8.57
2019-06-20T08:53:14.483Z,7.57
2019-06-20T08:55:40.838Z,9.87
2019-06-20T08:58:07.256Z,7.47
2019-06-20T09:00:35.710Z,7.70
2019-06-20T09:05:30.742Z,6.13
2019-06-20T09:07:59.048Z,7.53
2019-06-20T09:10:38.776Z,10.33
2019-06-20T09:13:05.036Z,6.27
2019-06-20T09:15:31.222Z,5.97
2019-06-20T09:17:58.462Z,6.67
2019-06-20T09:20:25.197Z,9.37
2019-06-20T09:22:52.299Z,8.27
2019-06-20T09:25:20.354Z,6.40
2019-06-20T09:27:46.515Z,7.50
2019-06-20T09:30:13.196Z,8.07
2019-06-20T09:32:39.408Z,5.40
2019-06-20T09:35:07.660Z,7.57
2019-06-20T09:37:33.946Z,6.30
2019-06-20T09:40:00.147Z,8.03
2019-06-20T09:42:26.412Z,8.40
2019-06-20T09:44:52.671Z,5.23
2019-06-20T09:47:18.930Z,7.03
2019-06-20T09:49:49.040Z,5.20
2019-06-20T09:52:13.140Z,10.47
2019-06-20T09:54:39.368Z,6.77
2019-06-20T09:57:05.530Z,6.97
2019-06-20T09:59:31.710Z,5.77
2019-06-20T10:01:58.837Z,10.87
2019-06-20T10:04:25.309Z,5.20
2019-06-20T10:06:52.299Z,8.87
2019-06-20T10:09:18.715Z,6.60
2019-06-20T10:11:45.334Z,5.90
2019-06-20T10:14:13.045Z,4.90
2019-06-20T10:16:45.631Z,9.08
2019-06-20T10:19:07.314Z,4.40
2019-06-20T10:21:33.494Z,8.55
2019-06-20T10:23:59.687Z,5.72
2019-06-20T10:26:27.185Z,5.42
2019-06-20T10:28:53.365Z,5.57
2019-06-20T10:31:19.582Z,5.20
2019-06-20T10:33:46.861Z,6.80
2019-06-20T10:36:13.324Z,6.07
2019-06-20T10:38:39.510Z,4.80
2019-06-20T10:41:05.671Z,6.97
2019-06-20T10:43:31.965Z,4.73
2019-06-20T10:45:58.172Z,4.40
2019-06-20T10:48:24.333Z,6.03
2019-06-20T10:50:50.492Z,4.00
2019-06-20T10:53:16.710Z,6.57
2019-06-20T10:55:43.360Z,5.80
2019-06-20T10:58:10.350Z,6.42
2019-06-20T11:00:36.682Z,5.12
2019-06-20T11:03:03.046Z,8.08
2019-06-20T11:05:29.195Z,6.92
2019-06-20T11:07:55.404Z,5.15
2019-06-20T11:10:21.898Z,5.80
2019-06-20T11:12:53.831Z,5.60
2019-06-20T11:15:17.475Z,7.00
2019-06-20T11:17:44.176Z,8.20
2019-06-20T11:20:12.899Z,4.90
2019-06-20T11:22:39.809Z,4.10
2019-06-20T11:25:08.368Z,6.97
2019-06-20T11:27:34.555Z,5.17
2019-06-20T11:30:00.773Z,5.43
2019-06-20T11:32:26.947Z,7.60
2019-06-20T11:34:53.111Z,6.27
2019-06-20T11:37:19.300Z,4.90
2019-06-20T11:39:45.452Z,4.57
2019-06-20T11:42:11.623Z,5.43
2019-06-20T11:44:40.899Z,5.67
2019-06-20T11:47:07.035Z,6.37
2019-06-20T11:49:34.546Z,6.00
2019-06-20T11:52:01.326Z,4.60
2019-06-20T11:54:27.480Z,8.53
2019-06-20T11:56:53.666Z,5.57
2019-06-20T11:59:19.969Z,5.50
2019-06-20T12:01:47.242Z,4.73
2019-06-20T12:04:13.680Z,5.85
2019-06-20T12:06:41.409Z,4.63
2019-06-20T12:09:07.965Z,4.80
2019-06-20T12:11:40.636Z,5.57
2019-06-20T12:14:07.046Z,7.97
2019-06-20T12:16:33.194Z,8.53
2019-06-20T12:18:59.351Z,6.40
2019-06-20T12:21:25.560Z,5.07
2019-06-20T12:23:51.740Z,6.23
2019-06-20T12:26:17.897Z,4.17
2019-06-20T12:28:44.717Z,10.05
2019-06-20T12:31:19.587Z,4.43
2019-06-20T12:33:39.704Z,4.70
2019-06-20T12:36:07.197Z,5.27
2019-06-20T12:38:33.376Z,4.77
2019-06-20T12:40:59.554Z,7.67
2019-06-20T12:43:25.851Z,3.67
2019-06-20T12:45:51.991Z,5.33
2019-06-20T12:48:18.162Z,6.00
2019-06-20T12:50:45.076Z,5.35
2019-06-20T12:53:11.662Z,4.30
2019-06-20T12:55:38.919Z,5.95
2019-06-20T12:58:05.946Z,4.57
2019-06-20T13:00:34.023Z,3.87
2019-06-20T13:03:00.234Z,5.17
2019-06-20T13:05:26.640Z,5.30
2019-06-20T13:07:52.794Z,3.77
2019-06-20T13:10:19.760Z,4.35
2019-06-20T13:12:46.421Z,5.97
2019-06-20T13:15:13.126Z,4.53
2019-06-20T13:17:39.983Z,4.10
2019-06-20T13:20:08.011Z,4.60
2019-06-20T13:22:34.187Z,4.03
2019-06-20T13:25:00.335Z,3.90
2019-06-20T13:27:26.537Z,5.17
2019-06-20T13:29:52.872Z,9.20
2019-06-20T13:32:19.034Z,8.60
2019-06-20T13:34:46.879Z,5.45
2019-06-20T13:37:15.547Z,4.50
2019-06-20T13:39:41.650Z,4.22
2019-06-20T13:42:09.337Z,5.90
2019-06-20T13:44:35.502Z,4.75
2019-06-20T13:47:01.683Z,5.35
2019-06-20T13:49:27.877Z,3.90
2019-06-20T13:51:54.054Z,8.90
2019-06-20T13:54:20.258Z,4.90
2019-06-20T13:56:47.509Z,6.50
2019-06-20T13:59:13.908Z,6.97
2019-06-20T14:01:41.491Z,6.00
2019-06-20T14:04:08.213Z,4.70
2019-06-20T14:06:34.378Z,8.60
2019-06-20T14:09:00.552Z,7.93
2019-06-20T14:11:26.756Z,7.53
2019-06-20T14:13:53.161Z,4.90
2019-06-20T14:16:19.472Z,4.53
2019-06-20T14:18:46.537Z,10.67
2019-06-20T14:21:13.080Z,5.93
2019-06-20T14:23:39.243Z,6.37
2019-06-20T14:26:05.447Z,5.53
2019-06-20T14:28:31.618Z,5.07
2019-06-20T14:30:58.000Z,7.00
2019-06-20T14:33:24.238Z,4.77
2019-06-20T14:35:51.215Z,8.80
2019-06-20T14:38:17.563Z,8.00
2019-06-20T14:40:45.282Z,6.13
2019-06-20T14:43:11.739Z,4.53
2019-06-20T14:45:38.682Z,4.78
2019-06-20T14:48:04.900Z,4.87
2019-06-20T14:50:31.056Z,6.77
2019-06-20T14:52:57.229Z,5.97
2019-06-20T14:55:23.430Z,5.07
2019-06-20T14:57:50.505Z,4.43
2019-06-20T15:00:18.101Z,4.57
2019-06-20T15:02:45.757Z,4.97
2019-06-20T15:05:14.556Z,7.43
2019-06-20T15:07:40.819Z,4.17
2019-06-20T15:10:07.241Z,4.73
2019-06-20T15:12:33.386Z,6.00
2019-06-20T15:14:59.549Z,5.23
2019-06-20T15:17:25.759Z,4.77
2019-06-20T15:19:51.923Z,4.53
2019-06-20T15:22:18.106Z,5.60
2019-06-20T15:24:46.647Z,7.90
2019-06-20T15:27:12.479Z,6.50
2019-06-20T15:29:38.665Z,4.77
2019-06-20T15:32:04.946Z,5.60
2019-06-20T15:34:31.112Z,6.93
2019-06-20T15:36:57.770Z,8.90
2019-06-20T15:39:24.321Z,6.20
2019-06-20T15:41:51.622Z,2.73
2019-06-20T15:44:18.063Z,3.40
2019-06-20T15:46:44.279Z,7.10
2019-06-20T15:49:16.014Z,6.63
2019-06-20T15:51:38.675Z,5.83
2019-06-20T15:54:04.869Z,4.00
2019-06-20T15:56:31.075Z,4.83
2019-06-20T15:58:57.213Z,6.30
2019-06-20T16:01:23.446Z,3.13
2019-06-20T16:03:49.717Z,5.73
2019-06-20T16:06:15.879Z,4.17
2019-06-20T16:08:42.077Z,3.73
2019-06-20T16:11:08.233Z,4.60
2019-06-20T16:13:34.393Z,3.43
2019-06-20T16:16:00.606Z,3.77
2019-06-20T16:18:26.772Z,6.07
2019-06-20T16:20:52.938Z,5.93
2019-06-20T16:23:19.136Z,6.17
2019-06-20T16:25:45.329Z,6.93
2019-06-20T16:28:11.488Z,5.00
2019-06-20T16:30:37.700Z,3.67
2019-06-20T16:33:04.030Z,6.47
2019-06-20T16:35:30.208Z,4.83
2019-06-20T16:37:56.426Z,3.83
2019-06-20T16:40:44.015Z,5.03
2019-06-20T16:43:10.207Z,6.97
2019-06-20T16:45:36.377Z,5.43
2019-06-20T16:48:02.533Z,5.83
2019-06-20T16:50:28.740Z,5.23
2019-06-20T16:52:54.920Z,4.83
2019-06-20T16:55:21.095Z,4.30
2019-06-20T16:57:47.299Z,3.20
2019-06-20T17:00:13.780Z,4.07
2019-06-20T17:02:39.941Z,4.23
2019-06-20T17:05:07.036Z,3.87
2019-06-20T17:07:33.521Z,4.17
2019-06-20T17:09:59.664Z,4.10
2019-06-20T17:12:25.854Z,3.90
2019-06-20T17:14:52.038Z,4.10
2019-06-20T17:17:18.205Z,7.70
2019-06-20T17:19:44.396Z,3.93
2019-06-20T17:22:10.531Z,3.43
2019-06-20T17:24:36.713Z,6.77
2019-06-20T17:27:03.097Z,5.67
2019-06-20T17:29:29.271Z,3.80
2019-06-20T17:31:57.498Z,5.13
2019-06-20T17:34:23.755Z,6.60
2019-06-20T17:36:49.906Z,7.60
2019-06-20T17:39:16.078Z,3.93
2019-06-20T17:41:54.372Z,6.03
2019-06-20T17:44:10.478Z,4.27
2019-06-20T17:46:36.665Z,6.43
2019-06-20T17:49:02.972Z,6.73
2019-06-20T17:51:29.135Z,7.10
2019-06-20T17:53:55.381Z,6.17
2019-06-20T17:56:21.586Z,3.67
2019-06-20T17:58:47.825Z,4.07
2019-06-20T18:01:14.025Z,4.07
2019-06-20T18:03:40.211Z,6.67
2019-06-20T18:06:06.396Z,6.13
2019-06-20T18:08:32.544Z,7.37
2019-06-20T18:10:58.743Z,5.57
2019-06-20T18:13:24.923Z,7.47
2019-06-20T18:15:51.154Z,4.53
2019-06-20T18:18:17.391Z,7.70
2019-06-20T18:20:43.560Z,5.23
2019-06-20T18:23:09.739Z,6.10
2019-06-20T18:25:35.936Z,7.67
2019-06-20T18:28:02.242Z,7.43
2019-06-20T18:30:40.596Z,5.70
2019-06-20T18:33:06.768Z,7.70
2019-06-20T18:35:33.073Z,5.77
2019-06-20T18:37:59.283Z,6.97
2019-06-20T18:40:25.476Z,5.17
2019-06-20T18:42:51.643Z,8.20
2019-06-20T18:45:19.683Z,8.70
2019-06-20T18:47:45.844Z,9.97
2019-06-20T18:50:12.527Z,5.50
2019-06-20T18:52:51.728Z,6.47
2019-06-20T18:55:07.973Z,4.83
2019-06-20T18:57:34.154Z,8.50
2019-06-20T19:00:00.495Z,6.27
2019-06-20T19:02:26.858Z,7.53
2019-06-20T19:04:53.159Z,8.33
2019-06-20T19:07:19.445Z,5.67
2019-06-20T19:09:45.754Z,5.87
2019-06-20T19:12:12.311Z,7.13
2019-06-20T19:14:38.777Z,8.93
2019-06-20T19:17:05.117Z,7.37
2019-06-20T19:19:31.508Z,7.10
2019-06-20T19:21:57.791Z,5.87
2019-06-20T19:24:24.063Z,9.23
2019-06-20T19:26:50.653Z,4.83
2019-06-20T19:29:16.875Z,7.77
2019-06-20T19:31:43.028Z,6.07
2019-06-20T19:34:09.192Z,5.27
2019-06-20T19:36:35.692Z,5.70
2019-06-20T19:39:01.859Z,6.43
2019-06-20T19:41:28.008Z,6.73
2019-06-20T19:43:54.224Z,7.03
2019-06-20T19:46:20.375Z,5.10
2019-06-20T19:48:46.637Z,5.97
2019-06-20T19:51:12.841Z,10.53
2019-06-20T19:53:39.109Z,4.77
2019-06-20T19:56:05.264Z,6.47
2019-06-20T19:58:31.572Z,6.63
2019-06-20T20:00:57.745Z,5.60
2019-06-20T20:03:23.888Z,6.53
2019-06-20T20:05:50.098Z,6.60
2019-06-20T20:08:16.685Z,7.67
2019-06-20T20:10:44.643Z,9.20
2019-06-20T20:13:10.942Z,6.50
2019-06-20T20:15:37.120Z,5.93
2019-06-20T20:18:03.398Z,6.03
2019-06-20T20:20:29.584Z,5.90
2019-06-20T20:22:55.773Z,5.83
2019-06-20T20:25:21.935Z,5.23
2019-06-20T20:27:48.122Z,6.03
2019-06-20T20:30:16.407Z,7.20
2019-06-20T20:32:45.596Z,5.07
2019-06-20T20:35:11.823Z,6.93
2019-06-20T20:37:38.030Z,5.40
2019-06-20T20:40:08.227Z,4.37
2019-06-20T20:42:34.410Z,6.20
2019-06-20T20:45:00.564Z,7.90
2019-06-20T20:47:28.494Z,6.67
2019-06-20T20:49:54.828Z,4.80
2019-06-20T20:52:21.863Z,7.27
2019-06-20T20:54:50.153Z,11.77
2019-06-20T20:57:16.327Z,5.20
2019-06-20T20:59:42.506Z,5.37
2019-06-20T21:02:08.784Z,7.87
2019-06-20T21:04:35.072Z,7.97
2019-06-20T21:07:01.244Z,5.00
2019-06-20T21:09:27.398Z,5.43
2019-06-20T21:11:53.645Z,7.43
2019-06-20T21:14:19.839Z,7.43
2019-06-20T21:16:46.010Z,4.70
2019-06-20T21:19:12.188Z,5.10
2019-06-20T21:21:38.372Z,6.67
2019-06-20T21:24:04.593Z,7.27
2019-06-20T21:26:30.932Z,5.53
2019-06-20T21:28:57.110Z,5.80
2019-06-20T21:31:23.300Z,6.43
2019-06-20T21:33:49.533Z,6.10
2019-06-20T21:36:15.701Z,5.47
2019-06-20T21:38:41.937Z,6.40
2019-06-20T21:41:08.127Z,6.13
2019-06-20T21:43:34.305Z,6.50
2019-06-20T21:46:00.501Z,6.00
2019-06-20T21:48:26.661Z,9.80
2019-06-20T21:50:52.835Z,4.87
2019-06-20T21:53:19.025Z,7.03
2019-06-20T21:55:45.187Z,4.80
2019-06-20T21:58:11.426Z,5.83
2019-06-20T22:00:43.132Z,9.33
2019-06-20T22:03:09.741Z,6.47
2019-06-20T22:05:36.213Z,6.00
2019-06-20T22:08:02.871Z,6.80
2019-06-20T22:10:29.052Z,5.13
2019-06-20T22:12:55.227Z,7.40
2019-06-20T22:15:21.406Z,9.13
2019-06-20T22:17:47.583Z,6.07
2019-06-20T22:20:14.467Z,8.63
2019-06-20T22:22:40.612Z,5.70
2019-06-20T22:25:07.539Z,6.03
2019-06-20T22:27:33.690Z,6.23
2019-06-20T22:30:03.467Z,6.33
2019-06-20T22:32:28.052Z,8.07
2019-06-20T22:34:54.209Z,9.37
2019-06-20T22:37:20.408Z,7.13
2019-06-20T22:39:46.672Z,7.47
2019-06-20T22:42:12.848Z,5.70
2019-06-20T22:44:39.017Z,6.23
2019-06-20T22:47:05.215Z,6.27
2019-06-20T22:49:31.467Z,6.10
2019-06-20T22:51:57.663Z,6.57
2019-06-20T22:54:23.868Z,6.77
2019-06-20T22:56:50.025Z,7.73
2019-06-20T22:59:16.197Z,6.13
2019-06-20T23:01:42.384Z,8.13
2019-06-20T23:04:08.540Z,7.33
2019-06-20T23:06:34.820Z,6.70
2019-06-20T23:09:01.007Z,6.30
2019-06-20T23:11:27.180Z,6.73
2019-06-20T23:13:53.350Z,7.40
2019-06-20T23:16:19.640Z,8.83
2019-06-20T23:18:45.809Z,9.80
2019-06-20T23:21:11.959Z,10.83
2019-06-20T23:23:38.140Z,7.27
2019-06-20T23:26:06.221Z,7.77
2019-06-20T23:28:32.389Z,5.90
2019-06-20T23:30:58.575Z,6.93
2019-06-20T23:33:24.730Z,5.70
2019-06-20T23:35:50.902Z,7.37
2019-06-20T23:38:17.090Z,5.73
2019-06-20T23:40:43.301Z,8.23
2019-06-20T23:43:09.469Z,8.23
2019-06-20T23:45:35.743Z,9.23
2019-06-20T23:48:01.913Z,9.07
2019-06-20T23:50:28.085Z,10.27
2019-06-20T23:52:58.949Z,6.80
2019-06-20T23:55:25.109Z,6.60
2019-06-20T23:57:51.282Z,8.63
